sensor_id;sensor_type;location;lat;lon;timestamp;temperature;humidity
56512;DHT22;42408;53.238;5.686;2023-06-14T00:01:34;15.60;95.10
56512;DHT22;42408;53.238;5.686;2023-06-14T00:04:00;15.60;94.80
56512;DHT22;42408;53.238;5.686;2023-06-14T00:06:26;15.60;95.00
56512;DHT22;42408;53.238;5.686;2023-06-14T00:08:52;15.60;94.90
56512;DHT22;42408;53.238;5.686;2023-06-14T00:11:19;15.60;95.00
56512;DHT22;42408;53.238;5.686;2023-06-14T00:13:45;15.50;95.30
56512;DHT22;42408;53.238;5.686;2023-06-14T00:16:10;15.50;95.30
56512;DHT22;42408;53.238;5.686;2023-06-14T00:18:36;15.50;95.60
56512;DHT22;42408;53.238;5.686;2023-06-14T00:21:03;15.40;95.60
56512;DHT22;42408;53.238;5.686;2023-06-14T00:23:29;15.50;95.90
56512;DHT22;42408;53.238;5.686;2023-06-14T00:25:55;15.50;96.00
56512;DHT22;42408;53.238;5.686;2023-06-14T00:28:20;15.40;96.20
56512;DHT22;42408;53.238;5.686;2023-06-14T00:30:46;15.40;96.60
56512;DHT22;42408;53.238;5.686;2023-06-14T00:33:12;15.40;96.70
56512;DHT22;42408;53.238;5.686;2023-06-14T00:35:38;15.40;96.80
56512;DHT22;42408;53.238;5.686;2023-06-14T00:38:03;15.40;97.00
56512;DHT22;42408;53.238;5.686;2023-06-14T00:40:29;15.40;97.00
56512;DHT22;42408;53.238;5.686;2023-06-14T00:42:54;15.40;97.30
56512;DHT22;42408;53.238;5.686;2023-06-14T00:45:20;15.40;97.60
56512;DHT22;42408;53.238;5.686;2023-06-14T00:47:46;15.40;97.60
56512;DHT22;42408;53.238;5.686;2023-06-14T00:50:11;15.30;97.50
56512;DHT22;42408;53.238;5.686;2023-06-14T00:52:38;15.30;97.60
56512;DHT22;42408;53.238;5.686;2023-06-14T00:55:04;15.30;97.70
56512;DHT22;42408;53.238;5.686;2023-06-14T00:57:30;15.30;98.00
56512;DHT22;42408;53.238;5.686;2023-06-14T00:59:55;15.30;98.20
56512;DHT22;42408;53.238;5.686;2023-06-14T01:02:21;15.20;98.20
56512;DHT22;42408;53.238;5.686;2023-06-14T01:04:47;15.20;98.40
56512;DHT22;42408;53.238;5.686;2023-06-14T01:15:03;15.10;99.20
56512;DHT22;42408;53.238;5.686;2023-06-14T01:17:29;15.10;99.30
56512;DHT22;42408;53.238;5.686;2023-06-14T01:19:58;15.00;99.60
56512;DHT22;42408;53.238;5.686;2023-06-14T01:22:25;15.00;99.70
56512;DHT22;42408;53.238;5.686;2023-06-14T01:24:51;15.00;99.80
56512;DHT22;42408;53.238;5.686;2023-06-14T01:27:23;15.00;99.90
56512;DHT22;42408;53.238;5.686;2023-06-14T01:29:54;15.00;99.90
56512;DHT22;42408;53.238;5.686;2023-06-14T01:32:25;15.00;99.90
56512;DHT22;42408;53.238;5.686;2023-06-14T01:34:51;14.90;99.90
56512;DHT22;42408;53.238;5.686;2023-06-14T01:37:17;15.00;99.90
56512;DHT22;42408;53.238;5.686;2023-06-14T01:39:43;15.00;99.90
56512;DHT22;42408;53.238;5.686;2023-06-14T01:42:10;14.90;99.90
56512;DHT22;42408;53.238;5.686;2023-06-14T01:44:36;14.90;99.90
56512;DHT22;42408;53.238;5.686;2023-06-14T01:47:02;14.90;99.90
56512;DHT22;42408;53.238;5.686;2023-06-14T01:49:28;14.90;99.90
56512;DHT22;42408;53.238;5.686;2023-06-14T01:51:53;14.90;99.90
56512;DHT22;42408;53.238;5.686;2023-06-14T01:54:19;14.90;99.90
56512;DHT22;42408;53.238;5.686;2023-06-14T01:56:44;14.80;99.90
56512;DHT22;42408;53.238;5.686;2023-06-14T01:59:10;14.80;99.90
56512;DHT22;42408;53.238;5.686;2023-06-14T02:01:36;14.80;99.90
56512;DHT22;42408;53.238;5.686;2023-06-14T02:04:01;14.80;99.90
56512;DHT22;42408;53.238;5.686;2023-06-14T02:06:27;14.80;99.90
56512;DHT22;42408;53.238;5.686;2023-06-14T02:08:53;14.80;99.90
56512;DHT22;42408;53.238;5.686;2023-06-14T02:11:19;14.70;99.90
56512;DHT22;42408;53.238;5.686;2023-06-14T02:13:44;14.70;99.90
56512;DHT22;42408;53.238;5.686;2023-06-14T02:16:10;14.80;99.90
56512;DHT22;42408;53.238;5.686;2023-06-14T02:18:36;14.70;99.90
56512;DHT22;42408;53.238;5.686;2023-06-14T02:21:01;15.20;99.90
56512;DHT22;42408;53.238;5.686;2023-06-14T02:23:27;14.70;99.90
56512;DHT22;42408;53.238;5.686;2023-06-14T02:25:53;14.90;99.90
56512;DHT22;42408;53.238;5.686;2023-06-14T02:28:18;14.60;99.90
56512;DHT22;42408;53.238;5.686;2023-06-14T02:30:44;14.60;99.90
56512;DHT22;42408;53.238;5.686;2023-06-14T02:33:09;14.70;99.90
56512;DHT22;42408;53.238;5.686;2023-06-14T02:35:38;14.50;99.90
56512;DHT22;42408;53.238;5.686;2023-06-14T02:38:03;14.50;99.90
56512;DHT22;42408;53.238;5.686;2023-06-14T02:40:29;14.60;99.90
56512;DHT22;42408;53.238;5.686;2023-06-14T02:42:54;14.50;99.90
56512;DHT22;42408;53.238;5.686;2023-06-14T02:45:20;14.50;99.90
56512;DHT22;42408;53.238;5.686;2023-06-14T02:47:46;14.60;99.90
56512;DHT22;42408;53.238;5.686;2023-06-14T02:50:11;14.50;99.90
56512;DHT22;42408;53.238;5.686;2023-06-14T02:52:37;15.10;99.90
56512;DHT22;42408;53.238;5.686;2023-06-14T02:55:03;14.60;99.90
56512;DHT22;42408;53.238;5.686;2023-06-14T02:57:29;14.60;99.90
56512;DHT22;42408;53.238;5.686;2023-06-14T02:59:54;14.70;99.90
56512;DHT22;42408;53.238;5.686;2023-06-14T03:02:20;14.90;99.90
56512;DHT22;42408;53.238;5.686;2023-06-14T03:04:45;14.60;99.90
56512;DHT22;42408;53.238;5.686;2023-06-14T03:07:12;14.50;99.90
56512;DHT22;42408;53.238;5.686;2023-06-14T03:09:38;14.80;99.90
56512;DHT22;42408;53.238;5.686;2023-06-14T03:12:03;14.70;99.90
56512;DHT22;42408;53.238;5.686;2023-06-14T03:14:30;14.40;99.90
56512;DHT22;42408;53.238;5.686;2023-06-14T03:16:56;14.60;99.90
56512;DHT22;42408;53.238;5.686;2023-06-14T03:19:22;14.70;99.90
56512;DHT22;42408;53.238;5.686;2023-06-14T03:21:48;14.70;99.90
56512;DHT22;42408;53.238;5.686;2023-06-14T03:24:14;14.60;99.90
56512;DHT22;42408;53.238;5.686;2023-06-14T03:26:41;14.50;99.90
56512;DHT22;42408;53.238;5.686;2023-06-14T03:29:07;14.70;99.90
56512;DHT22;42408;53.238;5.686;2023-06-14T03:31:34;14.70;99.90
56512;DHT22;42408;53.238;5.686;2023-06-14T03:34:00;14.60;99.90
56512;DHT22;42408;53.238;5.686;2023-06-14T03:36:26;14.50;99.90
56512;DHT22;42408;53.238;5.686;2023-06-14T03:38:53;14.70;99.90
56512;DHT22;42408;53.238;5.686;2023-06-14T03:41:19;14.40;99.90
56512;DHT22;42408;53.238;5.686;2023-06-14T03:43:45;14.30;99.90
56512;DHT22;42408;53.238;5.686;2023-06-14T03:46:11;14.50;99.90
56512;DHT22;42408;53.238;5.686;2023-06-14T03:48:36;14.60;99.90
56512;DHT22;42408;53.238;5.686;2023-06-14T03:51:02;14.70;99.90
56512;DHT22;42408;53.238;5.686;2023-06-14T03:53:27;14.40;99.90
56512;DHT22;42408;53.238;5.686;2023-06-14T03:55:54;14.40;99.90
56512;DHT22;42408;53.238;5.686;2023-06-14T03:58:20;14.60;99.90
56512;DHT22;42408;53.238;5.686;2023-06-14T04:00:46;14.60;99.90
56512;DHT22;42408;53.238;5.686;2023-06-14T04:03:11;14.80;99.90
56512;DHT22;42408;53.238;5.686;2023-06-14T04:05:39;15.00;99.90
56512;DHT22;42408;53.238;5.686;2023-06-14T04:08:07;14.50;99.90
56512;DHT22;42408;53.238;5.686;2023-06-14T04:10:34;14.60;99.90
56512;DHT22;42408;53.238;5.686;2023-06-14T04:13:00;14.50;99.90
56512;DHT22;42408;53.238;5.686;2023-06-14T04:15:25;14.50;99.90
56512;DHT22;42408;53.238;5.686;2023-06-14T04:17:53;14.60;99.90
56512;DHT22;42408;53.238;5.686;2023-06-14T04:20:22;14.90;99.90
56512;DHT22;42408;53.238;5.686;2023-06-14T04:22:49;14.50;99.90
56512;DHT22;42408;53.238;5.686;2023-06-14T04:25:15;14.90;99.90
56512;DHT22;42408;53.238;5.686;2023-06-14T04:27:40;14.50;99.90
56512;DHT22;42408;53.238;5.686;2023-06-14T04:30:07;14.60;99.90
56512;DHT22;42408;53.238;5.686;2023-06-14T04:32:32;14.60;99.90
56512;DHT22;42408;53.238;5.686;2023-06-14T04:35:07;15.00;99.90
56512;DHT22;42408;53.238;5.686;2023-06-14T04:37:33;14.70;99.90
56512;DHT22;42408;53.238;5.686;2023-06-14T04:40:00;14.80;99.90
56512;DHT22;42408;53.238;5.686;2023-06-14T04:42:26;14.50;99.90
56512;DHT22;42408;53.238;5.686;2023-06-14T04:44:56;14.80;99.90
56512;DHT22;42408;53.238;5.686;2023-06-14T04:47:21;14.70;99.90
56512;DHT22;42408;53.238;5.686;2023-06-14T04:49:47;14.70;99.90
56512;DHT22;42408;53.238;5.686;2023-06-14T04:52:13;15.00;99.90
56512;DHT22;42408;53.238;5.686;2023-06-14T04:54:41;14.80;99.90
56512;DHT22;42408;53.238;5.686;2023-06-14T04:57:10;14.70;99.90
56512;DHT22;42408;53.238;5.686;2023-06-14T04:59:39;15.20;99.90
56512;DHT22;42408;53.238;5.686;2023-06-14T05:02:04;14.90;99.90
56512;DHT22;42408;53.238;5.686;2023-06-14T05:04:32;14.90;99.90
56512;DHT22;42408;53.238;5.686;2023-06-14T05:06:57;14.90;99.90
56512;DHT22;42408;53.238;5.686;2023-06-14T05:09:23;15.00;99.90
56512;DHT22;42408;53.238;5.686;2023-06-14T05:11:49;15.00;99.90
56512;DHT22;42408;53.238;5.686;2023-06-14T05:14:15;15.50;99.90
56512;DHT22;42408;53.238;5.686;2023-06-14T05:16:41;15.10;99.90
56512;DHT22;42408;53.238;5.686;2023-06-14T05:19:06;15.60;99.90
56512;DHT22;42408;53.238;5.686;2023-06-14T05:21:32;15.20;99.90
56512;DHT22;42408;53.238;5.686;2023-06-14T05:23:59;15.20;99.90
56512;DHT22;42408;53.238;5.686;2023-06-14T05:26:25;15.40;99.90
56512;DHT22;42408;53.238;5.686;2023-06-14T05:28:54;15.20;99.90
56512;DHT22;42408;53.238;5.686;2023-06-14T05:31:24;15.40;99.90
56512;DHT22;42408;53.238;5.686;2023-06-14T05:33:51;15.40;99.90
56512;DHT22;42408;53.238;5.686;2023-06-14T05:36:17;15.60;99.90
56512;DHT22;42408;53.238;5.686;2023-06-14T05:38:43;15.40;99.90
56512;DHT22;42408;53.238;5.686;2023-06-14T05:41:08;15.30;99.90
56512;DHT22;42408;53.238;5.686;2023-06-14T05:43:34;15.50;99.90
56512;DHT22;42408;53.238;5.686;2023-06-14T05:45:59;15.80;99.90
56512;DHT22;42408;53.238;5.686;2023-06-14T05:48:25;15.60;99.90
56512;DHT22;42408;53.238;5.686;2023-06-14T05:50:51;15.60;99.90
56512;DHT22;42408;53.238;5.686;2023-06-14T05:53:16;15.60;99.90
56512;DHT22;42408;53.238;5.686;2023-06-14T05:55:42;15.70;99.90
56512;DHT22;42408;53.238;5.686;2023-06-14T05:58:07;15.80;99.90
56512;DHT22;42408;53.238;5.686;2023-06-14T06:00:33;15.90;99.90
56512;DHT22;42408;53.238;5.686;2023-06-14T06:02:58;16.10;99.90
56512;DHT22;42408;53.238;5.686;2023-06-14T06:05:24;16.70;99.90
56512;DHT22;42408;53.238;5.686;2023-06-14T06:07:50;16.50;99.90
56512;DHT22;42408;53.238;5.686;2023-06-14T06:10:16;16.10;99.90
56512;DHT22;42408;53.238;5.686;2023-06-14T06:12:41;16.20;99.90
56512;DHT22;42408;53.238;5.686;2023-06-14T06:15:07;16.10;99.90
56512;DHT22;42408;53.238;5.686;2023-06-14T06:17:37;16.20;99.90
56512;DHT22;42408;53.238;5.686;2023-06-14T06:20:03;16.20;99.90
56512;DHT22;42408;53.238;5.686;2023-06-14T06:22:30;16.30;99.90
56512;DHT22;42408;53.238;5.686;2023-06-14T06:24:56;16.30;99.90
56512;DHT22;42408;53.238;5.686;2023-06-14T06:27:21;16.40;99.90
56512;DHT22;42408;53.238;5.686;2023-06-14T06:29:47;16.50;99.90
56512;DHT22;42408;53.238;5.686;2023-06-14T06:32:14;16.70;99.90
56512;DHT22;42408;53.238;5.686;2023-06-14T06:34:40;17.30;99.90
56512;DHT22;42408;53.238;5.686;2023-06-14T06:37:05;18.40;99.90
56512;DHT22;42408;53.238;5.686;2023-06-14T06:39:31;19.20;99.90
56512;DHT22;42408;53.238;5.686;2023-06-14T06:41:56;20.20;99.90
56512;DHT22;42408;53.238;5.686;2023-06-14T06:44:22;21.30;99.90
56512;DHT22;42408;53.238;5.686;2023-06-14T06:46:48;22.30;99.90
56512;DHT22;42408;53.238;5.686;2023-06-14T06:49:13;23.00;97.60
56512;DHT22;42408;53.238;5.686;2023-06-14T06:51:42;23.80;94.10
56512;DHT22;42408;53.238;5.686;2023-06-14T06:54:11;24.30;93.00
56512;DHT22;42408;53.238;5.686;2023-06-14T06:56:36;25.00;90.70
56512;DHT22;42408;53.238;5.686;2023-06-14T06:59:02;25.10;87.70
56512;DHT22;42408;53.238;5.686;2023-06-14T07:01:27;25.90;90.10
56512;DHT22;42408;53.238;5.686;2023-06-14T07:06:20;27.00;85.70
56512;DHT22;42408;53.238;5.686;2023-06-14T07:08:45;27.40;82.50
56512;DHT22;42408;53.238;5.686;2023-06-14T07:11:13;28.00;79.80
56512;DHT22;42408;53.238;5.686;2023-06-14T07:13:39;28.10;80.90
56512;DHT22;42408;53.238;5.686;2023-06-14T07:16:05;28.70;78.30
56512;DHT22;42408;53.238;5.686;2023-06-14T07:18:31;29.00;78.40
56512;DHT22;42408;53.238;5.686;2023-06-14T07:20:56;29.20;75.00
56512;DHT22;42408;53.238;5.686;2023-06-14T07:23:22;29.30;74.70
56512;DHT22;42408;53.238;5.686;2023-06-14T07:25:48;29.60;72.80
56512;DHT22;42408;53.238;5.686;2023-06-14T07:28:14;29.60;73.30
56512;DHT22;42408;53.238;5.686;2023-06-14T07:30:39;29.60;72.00
56512;DHT22;42408;53.238;5.686;2023-06-14T07:33:05;29.30;73.00
56512;DHT22;42408;53.238;5.686;2023-06-14T07:35:31;29.40;73.30
56512;DHT22;42408;53.238;5.686;2023-06-14T07:37:56;29.20;72.10
56512;DHT22;42408;53.238;5.686;2023-06-14T07:40:22;29.30;67.40
56512;DHT22;42408;53.238;5.686;2023-06-14T07:42:47;29.10;67.60
56512;DHT22;42408;53.238;5.686;2023-06-14T07:45:15;29.00;69.20
56512;DHT22;42408;53.238;5.686;2023-06-14T07:47:41;28.90;67.20
56512;DHT22;42408;53.238;5.686;2023-06-14T07:50:06;29.00;71.20
56512;DHT22;42408;53.238;5.686;2023-06-14T07:52:32;29.20;70.10
56512;DHT22;42408;53.238;5.686;2023-06-14T07:54:58;29.10;70.20
56512;DHT22;42408;53.238;5.686;2023-06-14T07:57:23;29.30;67.20
56512;DHT22;42408;53.238;5.686;2023-06-14T07:59:49;29.30;70.20
56512;DHT22;42408;53.238;5.686;2023-06-14T08:02:15;29.50;70.80
56512;DHT22;42408;53.238;5.686;2023-06-14T08:04:41;29.40;69.30
56512;DHT22;42408;53.238;5.686;2023-06-14T08:07:07;29.30;64.60
56512;DHT22;42408;53.238;5.686;2023-06-14T08:09:33;29.20;66.90
56512;DHT22;42408;53.238;5.686;2023-06-14T08:11:58;29.20;69.00
56512;DHT22;42408;53.238;5.686;2023-06-14T08:14:24;29.10;62.50
56512;DHT22;42408;53.238;5.686;2023-06-14T08:16:49;29.10;70.20
56512;DHT22;42408;53.238;5.686;2023-06-14T08:19:15;29.00;64.10
56512;DHT22;42408;53.238;5.686;2023-06-14T08:21:42;29.10;65.30
56512;DHT22;42408;53.238;5.686;2023-06-14T08:24:10;29.10;63.60
56512;DHT22;42408;53.238;5.686;2023-06-14T08:26:37;29.40;69.00
56512;DHT22;42408;53.238;5.686;2023-06-14T08:29:03;29.60;67.00
56512;DHT22;42408;53.238;5.686;2023-06-14T08:31:29;29.30;67.30
56512;DHT22;42408;53.238;5.686;2023-06-14T08:33:54;29.30;63.30
56512;DHT22;42408;53.238;5.686;2023-06-14T08:36:20;29.20;65.70
56512;DHT22;42408;53.238;5.686;2023-06-14T08:38:45;29.30;66.40
56512;DHT22;42408;53.238;5.686;2023-06-14T08:41:11;29.20;67.80
56512;DHT22;42408;53.238;5.686;2023-06-14T08:43:38;29.30;66.30
56512;DHT22;42408;53.238;5.686;2023-06-14T08:46:04;29.10;64.50
56512;DHT22;42408;53.238;5.686;2023-06-14T08:48:31;29.30;67.40
56512;DHT22;42408;53.238;5.686;2023-06-14T08:51:00;29.40;68.20
56512;DHT22;42408;53.238;5.686;2023-06-14T08:53:32;29.40;67.90
56512;DHT22;42408;53.238;5.686;2023-06-14T08:56:02;29.30;65.30
56512;DHT22;42408;53.238;5.686;2023-06-14T08:58:30;29.10;65.00
56512;DHT22;42408;53.238;5.686;2023-06-14T09:00:57;29.20;65.40
56512;DHT22;42408;53.238;5.686;2023-06-14T09:03:22;29.10;66.70
56512;DHT22;42408;53.238;5.686;2023-06-14T09:05:57;29.00;62.40
56512;DHT22;42408;53.238;5.686;2023-06-14T09:08:25;28.90;61.90
56512;DHT22;42408;53.238;5.686;2023-06-14T09:10:50;28.90;64.20
56512;DHT22;42408;53.238;5.686;2023-06-14T09:13:16;28.90;65.20
56512;DHT22;42408;53.238;5.686;2023-06-14T09:15:42;29.00;70.80
56512;DHT22;42408;53.238;5.686;2023-06-14T09:18:07;29.00;66.10
56512;DHT22;42408;53.238;5.686;2023-06-14T09:20:33;28.80;67.90
56512;DHT22;42408;53.238;5.686;2023-06-14T09:23:00;28.80;66.30
56512;DHT22;42408;53.238;5.686;2023-06-14T09:25:26;28.90;66.50
56512;DHT22;42408;53.238;5.686;2023-06-14T09:27:52;29.20;65.40
56512;DHT22;42408;53.238;5.686;2023-06-14T09:30:19;29.30;66.00
56512;DHT22;42408;53.238;5.686;2023-06-14T09:32:45;29.40;71.90
56512;DHT22;42408;53.238;5.686;2023-06-14T09:35:11;29.40;66.80
56512;DHT22;42408;53.238;5.686;2023-06-14T09:37:36;29.40;63.30
56512;DHT22;42408;53.238;5.686;2023-06-14T09:40:05;29.40;65.30
56512;DHT22;42408;53.238;5.686;2023-06-14T09:42:32;29.30;63.00
56512;DHT22;42408;53.238;5.686;2023-06-14T09:45:01;29.10;60.80
56512;DHT22;42408;53.238;5.686;2023-06-14T09:47:27;29.10;67.20
56512;DHT22;42408;53.238;5.686;2023-06-14T09:49:53;29.10;62.30
56512;DHT22;42408;53.238;5.686;2023-06-14T09:52:20;29.10;66.60
56512;DHT22;42408;53.238;5.686;2023-06-14T09:54:46;29.10;64.00
56512;DHT22;42408;53.238;5.686;2023-06-14T09:57:13;29.10;60.80
56512;DHT22;42408;53.238;5.686;2023-06-14T09:59:41;29.00;64.70
56512;DHT22;42408;53.238;5.686;2023-06-14T10:02:09;28.90;63.00
56512;DHT22;42408;53.238;5.686;2023-06-14T10:04:36;28.90;64.30
56512;DHT22;42408;53.238;5.686;2023-06-14T10:07:02;29.00;65.60
56512;DHT22;42408;53.238;5.686;2023-06-14T10:09:28;29.10;62.60
56512;DHT22;42408;53.238;5.686;2023-06-14T10:11:55;29.10;65.30
56512;DHT22;42408;53.238;5.686;2023-06-14T10:14:21;29.30;63.20
56512;DHT22;42408;53.238;5.686;2023-06-14T10:16:56;29.20;65.70
56512;DHT22;42408;53.238;5.686;2023-06-14T10:19:41;29.20;67.00
56512;DHT22;42408;53.238;5.686;2023-06-14T10:22:09;29.20;63.30
56512;DHT22;42408;53.238;5.686;2023-06-14T10:24:42;29.30;62.10
56512;DHT22;42408;53.238;5.686;2023-06-14T10:27:08;29.30;63.90
56512;DHT22;42408;53.238;5.686;2023-06-14T10:32:17;29.10;60.40
56512;DHT22;42408;53.238;5.686;2023-06-14T10:34:44;29.10;60.10
56512;DHT22;42408;53.238;5.686;2023-06-14T10:37:13;29.00;59.00
56512;DHT22;42408;53.238;5.686;2023-06-14T10:39:39;28.90;58.60
56512;DHT22;42408;53.238;5.686;2023-06-14T10:42:08;28.80;59.80
56512;DHT22;42408;53.238;5.686;2023-06-14T10:47:04;28.80;62.80
56512;DHT22;42408;53.238;5.686;2023-06-14T10:49:44;28.70;59.70
56512;DHT22;42408;53.238;5.686;2023-06-14T10:52:15;28.60;62.80
56512;DHT22;42408;53.238;5.686;2023-06-14T10:57:27;28.70;64.40
56512;DHT22;42408;53.238;5.686;2023-06-14T10:59:53;28.80;62.90
56512;DHT22;42408;53.238;5.686;2023-06-14T11:04:46;28.60;61.60
56512;DHT22;42408;53.238;5.686;2023-06-14T11:09:50;28.70;61.50
56512;DHT22;42408;53.238;5.686;2023-06-14T11:12:19;28.70;61.10
56512;DHT22;42408;53.238;5.686;2023-06-14T11:14:46;28.60;65.70
56512;DHT22;42408;53.238;5.686;2023-06-14T11:17:13;28.60;62.10
56512;DHT22;42408;53.238;5.686;2023-06-14T11:19:38;28.60;61.60
56512;DHT22;42408;53.238;5.686;2023-06-14T11:22:04;28.60;62.30
56512;DHT22;42408;53.238;5.686;2023-06-14T11:24:29;28.40;60.10
56512;DHT22;42408;53.238;5.686;2023-06-14T11:26:57;28.40;62.00
56512;DHT22;42408;53.238;5.686;2023-06-14T11:29:23;28.40;63.90
56512;DHT22;42408;53.238;5.686;2023-06-14T11:31:48;28.60;62.80
56512;DHT22;42408;53.238;5.686;2023-06-14T11:34:14;28.60;61.40
56512;DHT22;42408;53.238;5.686;2023-06-14T11:36:40;28.50;61.60
56512;DHT22;42408;53.238;5.686;2023-06-14T11:39:06;28.60;62.70
56512;DHT22;42408;53.238;5.686;2023-06-14T11:44:03;28.60;61.10
56512;DHT22;42408;53.238;5.686;2023-06-14T11:46:29;28.50;62.30
56512;DHT22;42408;53.238;5.686;2023-06-14T11:48:54;28.50;62.70
56512;DHT22;42408;53.238;5.686;2023-06-14T11:51:20;28.50;63.70
56512;DHT22;42408;53.238;5.686;2023-06-14T11:53:46;28.50;66.40
56512;DHT22;42408;53.238;5.686;2023-06-14T11:56:12;28.50;60.40
56512;DHT22;42408;53.238;5.686;2023-06-14T11:58:37;28.60;65.50
56512;DHT22;42408;53.238;5.686;2023-06-14T12:01:03;28.50;62.00
56512;DHT22;42408;53.238;5.686;2023-06-14T12:03:29;28.60;62.50
56512;DHT22;42408;53.238;5.686;2023-06-14T12:06:04;28.70;63.50
56512;DHT22;42408;53.238;5.686;2023-06-14T12:08:33;28.70;62.40
56512;DHT22;42408;53.238;5.686;2023-06-14T12:11:05;28.60;64.30
56512;DHT22;42408;53.238;5.686;2023-06-14T12:13:31;28.70;65.30
56512;DHT22;42408;53.238;5.686;2023-06-14T12:15:56;28.70;64.10
56512;DHT22;42408;53.238;5.686;2023-06-14T12:18:32;28.70;62.20
56512;DHT22;42408;53.238;5.686;2023-06-14T12:20:59;28.70;61.90
56512;DHT22;42408;53.238;5.686;2023-06-14T12:26:08;28.80;61.40
56512;DHT22;42408;53.238;5.686;2023-06-14T12:28:34;28.70;62.80
56512;DHT22;42408;53.238;5.686;2023-06-14T12:31:00;28.80;62.60
56512;DHT22;42408;53.238;5.686;2023-06-14T12:33:25;28.70;61.60
56512;DHT22;42408;53.238;5.686;2023-06-14T12:35:53;28.60;65.70
56512;DHT22;42408;53.238;5.686;2023-06-14T12:38:20;28.40;66.40
56512;DHT22;42408;53.238;5.686;2023-06-14T12:40:46;28.40;68.30
56512;DHT22;42408;53.238;5.686;2023-06-14T12:43:12;28.50;67.60
56512;DHT22;42408;53.238;5.686;2023-06-14T12:45:37;28.30;68.20
56512;DHT22;42408;53.238;5.686;2023-06-14T12:48:03;28.00;68.00
56512;DHT22;42408;53.238;5.686;2023-06-14T12:50:29;27.80;68.40
56512;DHT22;42408;53.238;5.686;2023-06-14T12:52:54;27.40;67.10
56512;DHT22;42408;53.238;5.686;2023-06-14T12:55:20;27.20;68.10
56512;DHT22;42408;53.238;5.686;2023-06-14T12:57:45;27.20;71.30
56512;DHT22;42408;53.238;5.686;2023-06-14T13:00:11;27.20;70.60
56512;DHT22;42408;53.238;5.686;2023-06-14T13:02:38;27.30;71.30
56512;DHT22;42408;53.238;5.686;2023-06-14T13:05:03;27.40;70.90
56512;DHT22;42408;53.238;5.686;2023-06-14T13:07:29;27.40;72.60
56512;DHT22;42408;53.238;5.686;2023-06-14T13:09:55;27.40;72.50
56512;DHT22;42408;53.238;5.686;2023-06-14T13:12:20;27.50;70.60
56512;DHT22;42408;53.238;5.686;2023-06-14T13:14:46;27.50;71.30
56512;DHT22;42408;53.238;5.686;2023-06-14T13:17:11;27.30;71.80
56512;DHT22;42408;53.238;5.686;2023-06-14T13:19:37;27.40;69.80
56512;DHT22;42408;53.238;5.686;2023-06-14T13:22:02;27.30;70.10
56512;DHT22;42408;53.238;5.686;2023-06-14T13:24:28;27.20;69.80
56512;DHT22;42408;53.238;5.686;2023-06-14T13:26:55;27.20;71.60
56512;DHT22;42408;53.238;5.686;2023-06-14T13:29:20;26.90;69.80
56512;DHT22;42408;53.238;5.686;2023-06-14T13:31:46;26.60;70.50
56512;DHT22;42408;53.238;5.686;2023-06-14T13:34:11;26.40;72.50
56512;DHT22;42408;53.238;5.686;2023-06-14T13:36:37;26.40;71.70
56512;DHT22;42408;53.238;5.686;2023-06-14T13:39:02;26.40;73.40
56512;DHT22;42408;53.238;5.686;2023-06-14T13:41:28;26.50;73.20
56512;DHT22;42408;53.238;5.686;2023-06-14T13:43:59;26.50;73.10
56512;DHT22;42408;53.238;5.686;2023-06-14T13:46:24;26.50;73.10
56512;DHT22;42408;53.238;5.686;2023-06-14T13:48:50;26.60;73.80
56512;DHT22;42408;53.238;5.686;2023-06-14T13:51:16;26.80;72.10
56512;DHT22;42408;53.238;5.686;2023-06-14T13:53:45;26.80;71.30
56512;DHT22;42408;53.238;5.686;2023-06-14T13:56:10;26.80;71.70
56512;DHT22;42408;53.238;5.686;2023-06-14T13:58:37;26.60;70.60
56512;DHT22;42408;53.238;5.686;2023-06-14T14:01:02;26.30;71.20
56512;DHT22;42408;53.238;5.686;2023-06-14T14:03:28;26.20;72.60
56512;DHT22;42408;53.238;5.686;2023-06-14T14:05:54;26.00;72.90
56512;DHT22;42408;53.238;5.686;2023-06-14T14:08:19;25.70;72.50
56512;DHT22;42408;53.238;5.686;2023-06-14T14:10:45;25.60;73.00
56512;DHT22;42408;53.238;5.686;2023-06-14T14:13:11;25.70;74.10
56512;DHT22;42408;53.238;5.686;2023-06-14T14:15:37;25.80;74.50
56512;DHT22;42408;53.238;5.686;2023-06-14T14:18:03;25.90;73.20
56512;DHT22;42408;53.238;5.686;2023-06-14T14:20:30;26.00;74.40
56512;DHT22;42408;53.238;5.686;2023-06-14T14:22:55;26.10;74.60
56512;DHT22;42408;53.238;5.686;2023-06-14T14:25:21;26.00;72.30
56512;DHT22;42408;53.238;5.686;2023-06-14T14:27:47;26.10;74.50
56512;DHT22;42408;53.238;5.686;2023-06-14T14:30:13;26.20;74.10
56512;DHT22;42408;53.238;5.686;2023-06-14T14:32:39;26.20;72.80
56512;DHT22;42408;53.238;5.686;2023-06-14T14:35:05;26.10;72.40
56512;DHT22;42408;53.238;5.686;2023-06-14T14:37:31;26.10;73.90
56512;DHT22;42408;53.238;5.686;2023-06-14T14:39:57;26.10;74.20
56512;DHT22;42408;53.238;5.686;2023-06-14T14:42:22;26.20;73.80
56512;DHT22;42408;53.238;5.686;2023-06-14T14:44:48;26.10;75.00
56512;DHT22;42408;53.238;5.686;2023-06-14T14:47:13;25.90;72.10
56512;DHT22;42408;53.238;5.686;2023-06-14T14:49:39;25.90;73.00
56512;DHT22;42408;53.238;5.686;2023-06-14T14:52:05;25.80;73.40
56512;DHT22;42408;53.238;5.686;2023-06-14T14:54:30;25.70;72.30
56512;DHT22;42408;53.238;5.686;2023-06-14T14:56:56;25.70;72.90
56512;DHT22;42408;53.238;5.686;2023-06-14T14:59:21;25.70;74.20
56512;DHT22;42408;53.238;5.686;2023-06-14T15:01:47;25.70;75.00
56512;DHT22;42408;53.238;5.686;2023-06-14T15:04:13;25.80;74.20
56512;DHT22;42408;53.238;5.686;2023-06-14T15:06:38;25.90;73.60
56512;DHT22;42408;53.238;5.686;2023-06-14T15:09:05;25.70;73.50
56512;DHT22;42408;53.238;5.686;2023-06-14T15:11:31;25.50;73.40
56512;DHT22;42408;53.238;5.686;2023-06-14T15:13:56;25.40;74.50
56512;DHT22;42408;53.238;5.686;2023-06-14T15:16:22;25.20;74.30
56512;DHT22;42408;53.238;5.686;2023-06-14T15:18:47;25.10;74.90
56512;DHT22;42408;53.238;5.686;2023-06-14T15:21:13;25.10;75.30
56512;DHT22;42408;53.238;5.686;2023-06-14T15:23:38;25.00;74.60
56512;DHT22;42408;53.238;5.686;2023-06-14T15:26:04;25.00;74.50
56512;DHT22;42408;53.238;5.686;2023-06-14T15:28:30;25.10;75.50
56512;DHT22;42408;53.238;5.686;2023-06-14T15:30:58;25.10;76.60
56512;DHT22;42408;53.238;5.686;2023-06-14T15:33:23;25.20;76.70
56512;DHT22;42408;53.238;5.686;2023-06-14T15:35:49;25.10;75.10
56512;DHT22;42408;53.238;5.686;2023-06-14T15:38:15;25.20;75.50
56512;DHT22;42408;53.238;5.686;2023-06-14T15:40:40;25.10;75.00
56512;DHT22;42408;53.238;5.686;2023-06-14T15:43:06;25.00;75.10
56512;DHT22;42408;53.238;5.686;2023-06-14T15:45:31;24.80;74.60
56512;DHT22;42408;53.238;5.686;2023-06-14T15:47:57;24.70;76.70
56512;DHT22;42408;53.238;5.686;2023-06-14T15:50:23;24.70;75.10
56512;DHT22;42408;53.238;5.686;2023-06-14T15:52:48;24.60;75.60